createdAt,value
2018-03-28T00:00:33.310Z,0
2018-03-28T00:01:13.795Z,0
2018-03-28T00:01:54.271Z,0
2018-03-28T00:02:34.753Z,0
2018-03-28T00:03:15.226Z,0
2018-03-28T00:03:55.685Z,0
2018-03-28T00:04:36.183Z,0
2018-03-28T00:05:16.648Z,0
2018-03-28T00:05:57.225Z,0
2018-03-28T00:06:37.650Z,0
2018-03-28T00:07:18.178Z,0
2018-03-28T00:07:58.652Z,0
2018-03-28T00:08:39.173Z,0
2018-03-28T00:09:19.674Z,0
2018-03-28T00:10:00.110Z,0
2018-03-28T00:10:40.641Z,0
2018-03-28T00:11:21.134Z,0
2018-03-28T00:12:01.661Z,0
2018-03-28T00:12:42.113Z,0
2018-03-28T00:13:22.616Z,0
2018-03-28T00:14:03.091Z,0
2018-03-28T00:14:43.598Z,0
2018-03-28T00:15:24.095Z,0
2018-03-28T00:16:04.633Z,0
2018-03-28T00:16:45.093Z,0
2018-03-28T00:17:25.579Z,0
2018-03-28T00:18:06.096Z,0
2018-03-28T00:18:46.646Z,0
2018-03-28T00:19:27.169Z,0
2018-03-28T00:20:07.751Z,0
2018-03-28T00:20:48.139Z,0
2018-03-28T00:21:28.638Z,0
2018-03-28T00:22:09.108Z,0
2018-03-28T00:22:49.643Z,0
2018-03-28T00:23:30.179Z,0
2018-03-28T00:24:10.707Z,0
2018-03-28T00:24:51.155Z,0
2018-03-28T00:25:31.621Z,0
2018-03-28T00:26:12.102Z,0
2018-03-28T00:26:52.618Z,0
2018-03-28T00:27:33.176Z,0
2018-03-28T00:28:13.623Z,0
2018-03-28T00:28:54.116Z,0
2018-03-28T00:29:34.646Z,0
2018-03-28T00:30:15.108Z,0
2018-03-28T00:30:55.630Z,0
2018-03-28T00:31:36.124Z,0
2018-03-28T00:32:16.597Z,0
2018-03-28T00:32:57.159Z,0
2018-03-28T00:33:37.583Z,0
2018-03-28T00:34:18.155Z,0
2018-03-28T00:34:58.630Z,0
2018-03-28T00:35:39.103Z,0
2018-03-28T00:36:19.591Z,0
2018-03-28T00:37:00.108Z,0
2018-03-28T00:37:40.561Z,0
2018-03-28T00:38:21.031Z,0
2018-03-28T00:39:01.565Z,0
2018-03-28T00:39:42.065Z,0
2018-03-28T00:40:22.562Z,0
2018-03-28T00:41:03.042Z,0
2018-03-28T00:41:43.539Z,0
2018-03-28T00:42:24.056Z,0
2018-03-28T00:43:04.516Z,0
2018-03-28T00:43:44.987Z,0
2018-03-28T00:44:25.502Z,0
2018-03-28T00:45:05.960Z,0
2018-03-28T00:45:46.450Z,0
2018-03-28T00:46:26.932Z,0
2018-03-28T00:47:07.412Z,0
2018-03-28T00:47:47.895Z,0
2018-03-28T00:48:28.395Z,0
2018-03-28T00:49:08.892Z,0
2018-03-28T00:49:49.396Z,0
2018-03-28T00:50:29.855Z,0
2018-03-28T00:51:10.348Z,0
2018-03-28T00:51:50.822Z,0
2018-03-28T00:52:31.340Z,0
2018-03-28T00:53:11.800Z,0
2018-03-28T00:53:52.288Z,0
2018-03-28T00:54:32.777Z,0
2018-03-28T00:55:13.292Z,0
2018-03-28T00:55:53.833Z,0
2018-03-28T00:56:34.330Z,0
2018-03-28T00:57:14.859Z,0
2018-03-28T00:57:55.335Z,0
2018-03-28T00:58:35.835Z,0
2018-03-28T00:59:16.327Z,0
2018-03-28T00:59:56.775Z,0
2018-03-28T01:00:37.236Z,0
2018-03-28T01:01:17.750Z,0
2018-03-28T01:01:58.255Z,0
2018-03-28T01:02:38.707Z,0
2018-03-28T01:03:19.243Z,0
2018-03-28T01:03:59.732Z,0
2018-03-28T01:04:40.193Z,0
2018-03-28T01:05:20.705Z,0
2018-03-28T01:06:01.191Z,0
2018-03-28T01:06:41.699Z,0
2018-03-28T01:07:22.148Z,0
2018-03-28T01:08:02.629Z,0
2018-03-28T01:08:43.107Z,0
2018-03-28T01:09:23.614Z,0
2018-03-28T01:10:04.103Z,0
2018-03-28T01:10:44.627Z,0
2018-03-28T01:11:25.155Z,0
2018-03-28T01:12:05.655Z,0
2018-03-28T01:12:46.135Z,0
2018-03-28T01:13:26.666Z,0
2018-03-28T01:14:07.153Z,0
2018-03-28T01:14:47.644Z,0
2018-03-28T01:15:28.123Z,0
2018-03-28T01:16:08.659Z,0
2018-03-28T01:16:49.124Z,0
2018-03-28T01:17:29.569Z,0
2018-03-28T01:18:10.092Z,0
2018-03-28T01:18:50.590Z,0
2018-03-28T01:19:31.104Z,0
2018-03-28T01:20:11.619Z,0
2018-03-28T01:20:52.099Z,0
2018-03-28T01:21:32.563Z,0
2018-03-28T01:22:13.065Z,0
2018-03-28T01:22:53.538Z,0
2018-03-28T01:23:34.065Z,0
2018-03-28T01:24:14.521Z,0
2018-03-28T01:24:55.025Z,0
2018-03-28T01:25:35.600Z,0
2018-03-28T01:26:16.031Z,0
2018-03-28T01:26:56.519Z,0
2018-03-28T01:27:37.044Z,0
2018-03-28T01:28:17.516Z,0
2018-03-28T01:28:57.961Z,0
2018-03-28T01:29:38.469Z,0
2018-03-28T01:30:18.960Z,0
2018-03-28T01:30:59.448Z,0
2018-03-28T01:31:39.936Z,0
2018-03-28T01:32:20.464Z,0
2018-03-28T01:33:00.914Z,0
2018-03-28T01:33:41.417Z,0
2018-03-28T01:34:21.913Z,0
2018-03-28T01:35:02.354Z,0
2018-03-28T01:35:42.888Z,0
2018-03-28T01:36:23.335Z,0
2018-03-28T01:37:03.827Z,0
2018-03-28T01:37:44.280Z,0
2018-03-28T01:38:24.789Z,0
2018-03-28T01:39:05.307Z,0
2018-03-28T01:39:45.773Z,0
2018-03-28T01:40:26.250Z,0
2018-03-28T01:41:06.750Z,0
2018-03-28T01:41:47.253Z,0
2018-03-28T01:42:27.783Z,0
2018-03-28T01:43:08.273Z,0
2018-03-28T01:43:48.831Z,0
2018-03-28T01:44:29.285Z,0
2018-03-28T01:45:09.795Z,0
2018-03-28T01:45:50.258Z,0
2018-03-28T01:46:30.771Z,0
2018-03-28T01:47:11.282Z,0
2018-03-28T01:47:51.737Z,0
2018-03-28T01:48:32.209Z,0
2018-03-28T01:49:12.706Z,0
2018-03-28T01:49:53.160Z,0
2018-03-28T01:50:33.668Z,0
2018-03-28T01:51:14.168Z,0
2018-03-28T01:51:54.657Z,0
2018-03-28T01:52:35.149Z,0
2018-03-28T01:53:15.607Z,0
2018-03-28T01:53:56.083Z,0
2018-03-28T01:54:36.556Z,0
2018-03-28T01:55:17.063Z,0
2018-03-28T01:55:57.522Z,0
2018-03-28T01:56:38.035Z,0
2018-03-28T01:57:18.554Z,0
2018-03-28T01:57:59.014Z,0
2018-03-28T01:58:39.502Z,0
2018-03-28T01:59:20.004Z,0
2018-03-28T02:00:00.473Z,0
2018-03-28T02:00:41.038Z,0
2018-03-28T02:01:21.496Z,0
2018-03-28T02:02:02.163Z,0
2018-03-28T02:02:42.628Z,0
2018-03-28T02:03:23.112Z,0
2018-03-28T02:04:03.639Z,0
2018-03-28T02:04:44.140Z,0
2018-03-28T02:05:24.639Z,0
2018-03-28T02:06:05.089Z,0
2018-03-28T02:06:45.593Z,0
2018-03-28T02:07:26.179Z,0
2018-03-28T02:08:06.639Z,0
2018-03-28T02:08:47.104Z,0
2018-03-28T02:09:27.586Z,0
2018-03-28T02:10:08.079Z,0
2018-03-28T02:10:48.566Z,0
2018-03-28T02:11:29.052Z,0
2018-03-28T02:12:09.521Z,0
2018-03-28T02:12:50.036Z,0
2018-03-28T02:13:30.525Z,0
2018-03-28T02:14:10.976Z,0
2018-03-28T02:14:51.435Z,0
2018-03-28T02:15:31.950Z,0
2018-03-28T02:16:12.422Z,0
2018-03-28T02:16:52.945Z,0
2018-03-28T02:17:33.411Z,0
2018-03-28T02:18:13.928Z,0
2018-03-28T02:18:54.410Z,0
2018-03-28T02:19:34.878Z,0
2018-03-28T02:20:15.367Z,0
2018-03-28T02:20:55.867Z,0
2018-03-28T02:21:36.332Z,0
2018-03-28T02:22:16.796Z,0
2018-03-28T02:22:57.319Z,0
2018-03-28T02:23:37.791Z,0
2018-03-28T02:24:18.289Z,0
2018-03-28T02:24:58.778Z,0
2018-03-28T02:25:39.242Z,0
2018-03-28T02:26:19.760Z,0
2018-03-28T02:27:00.258Z,0
2018-03-28T02:27:40.746Z,0
2018-03-28T02:28:21.220Z,0
2018-03-28T02:29:01.731Z,0
2018-03-28T02:29:42.233Z,0
2018-03-28T02:30:22.805Z,0
2018-03-28T02:32:22.779Z,0
2018-03-28T02:33:03.284Z,0
2018-03-28T02:33:43.782Z,0
2018-03-28T02:34:24.312Z,0
2018-03-28T02:35:04.835Z,0
2018-03-28T02:35:45.349Z,0
2018-03-28T02:36:25.861Z,0
2018-03-28T02:37:06.381Z,0
2018-03-28T02:37:46.892Z,0
2018-03-28T02:38:27.400Z,0
2018-03-28T02:39:07.911Z,0
2018-03-28T02:39:48.416Z,0
2018-03-28T02:40:28.921Z,0
2018-03-28T02:41:09.434Z,0
2018-03-28T02:41:49.968Z,0
2018-03-28T02:42:30.470Z,0
2018-03-28T02:43:10.980Z,0
2018-03-28T02:43:51.509Z,0
2018-03-28T02:44:32.025Z,0
2018-03-28T02:45:12.537Z,0
2018-03-28T02:45:53.055Z,0
2018-03-28T02:46:33.585Z,0
2018-03-28T02:47:14.109Z,0
2018-03-28T02:47:54.626Z,0
2018-03-28T02:48:35.147Z,0
2018-03-28T02:49:15.660Z,0
2018-03-28T02:49:56.177Z,0
2018-03-28T02:50:36.688Z,0
2018-03-28T02:51:17.201Z,0
2018-03-28T02:51:57.718Z,0
2018-03-28T02:52:38.240Z,0
2018-03-28T02:53:18.753Z,0
2018-03-28T02:53:59.289Z,0
2018-03-28T02:54:39.804Z,0
2018-03-28T02:55:20.316Z,0
2018-03-28T02:56:00.832Z,0
2018-03-28T02:56:41.336Z,0
2018-03-28T02:57:21.843Z,0
2018-03-28T02:58:02.364Z,0
2018-03-28T02:58:42.888Z,0
2018-03-28T02:59:23.408Z,0
2018-03-28T03:00:03.952Z,0
2018-03-28T03:00:44.476Z,0
2018-03-28T03:01:25.015Z,0
2018-03-28T03:02:05.612Z,0
2018-03-28T03:02:46.107Z,0
2018-03-28T03:03:26.624Z,0
2018-03-28T03:04:07.148Z,0
2018-03-28T03:04:47.664Z,0
2018-03-28T03:05:28.188Z,0
2018-03-28T03:06:08.713Z,0
2018-03-28T03:06:49.257Z,0
2018-03-28T03:07:29.773Z,0
2018-03-28T03:08:10.290Z,0
2018-03-28T03:08:50.806Z,0
2018-03-28T03:09:31.322Z,0
2018-03-28T03:10:11.840Z,0
2018-03-28T03:10:52.355Z,0
2018-03-28T03:11:32.869Z,0
2018-03-28T03:12:13.372Z,0
2018-03-28T03:12:53.887Z,0
2018-03-28T03:13:34.406Z,0
2018-03-28T03:14:14.924Z,0
2018-03-28T03:14:55.440Z,0
2018-03-28T03:15:35.964Z,0
2018-03-28T03:16:16.483Z,0
2018-03-28T03:16:56.997Z,0
2018-03-28T03:17:37.512Z,0
2018-03-28T03:18:18.033Z,0
2018-03-28T03:18:58.547Z,0
2018-03-28T03:19:39.093Z,0
2018-03-28T03:20:19.576Z,0
2018-03-28T03:21:00.087Z,0
2018-03-28T03:21:40.597Z,0
2018-03-28T03:22:21.110Z,0
2018-03-28T03:23:01.625Z,0
2018-03-28T03:23:42.147Z,0
2018-03-28T03:24:22.649Z,0
2018-03-28T03:25:03.159Z,0
2018-03-28T03:25:43.675Z,0
2018-03-28T03:26:24.192Z,0
2018-03-28T03:27:04.700Z,0
2018-03-28T03:27:45.218Z,0
2018-03-28T03:28:25.741Z,0
2018-03-28T03:29:06.252Z,0
2018-03-28T03:29:46.777Z,0
2018-03-28T03:30:27.290Z,0
2018-03-28T03:31:07.805Z,0
2018-03-28T03:31:48.322Z,0
2018-03-28T03:32:28.838Z,0
2018-03-28T03:33:09.347Z,0
2018-03-28T03:33:49.870Z,0
2018-03-28T03:34:30.419Z,0
2018-03-28T03:35:10.949Z,0
2018-03-28T03:35:51.488Z,0
2018-03-28T03:36:32.001Z,0
2018-03-28T03:37:12.506Z,0
2018-03-28T03:37:53.017Z,0
2018-03-28T03:38:33.533Z,0
2018-03-28T03:39:14.049Z,0
2018-03-28T03:39:54.571Z,0
2018-03-28T03:40:35.068Z,0
2018-03-28T03:41:15.710Z,0
2018-03-28T03:41:56.215Z,0
2018-03-28T03:42:36.739Z,0
2018-03-28T03:43:17.262Z,0
2018-03-28T03:43:57.766Z,0
2018-03-28T03:44:38.279Z,0
2018-03-28T03:45:18.786Z,0
2018-03-28T03:45:59.303Z,0
2018-03-28T03:46:39.826Z,0
2018-03-28T03:47:20.354Z,0
2018-03-28T03:48:00.918Z,0
2018-03-28T03:48:41.432Z,0
2018-03-28T03:49:22.008Z,0
2018-03-28T03:50:02.543Z,0
2018-03-28T03:50:43.051Z,0
2018-03-28T03:51:23.563Z,0
2018-03-28T03:52:04.063Z,0
2018-03-28T03:52:44.585Z,0
2018-03-28T03:53:25.105Z,0
2018-03-28T03:54:05.614Z,0
2018-03-28T03:54:46.127Z,0
2018-03-28T03:55:26.640Z,0
2018-03-28T03:56:07.163Z,0
2018-03-28T03:56:47.686Z,0
2018-03-28T03:57:28.205Z,0
2018-03-28T03:58:08.723Z,0
2018-03-28T03:58:49.300Z,0
2018-03-28T03:59:29.761Z,0
2018-03-28T04:00:10.276Z,0
2018-03-28T04:00:50.781Z,0
2018-03-28T04:01:31.300Z,0
2018-03-28T04:02:11.823Z,0
2018-03-28T04:02:52.342Z,0
2018-03-28T04:03:32.857Z,0
2018-03-28T04:04:13.384Z,0
2018-03-28T04:04:53.898Z,0
2018-03-28T04:05:34.415Z,0
2018-03-28T04:06:14.925Z,0
2018-03-28T04:06:55.443Z,0
2018-03-28T04:07:35.981Z,0
2018-03-28T04:08:16.532Z,0
2018-03-28T04:08:57.006Z,0
2018-03-28T04:09:37.555Z,0
2018-03-28T04:10:18.089Z,0
2018-03-28T04:10:58.608Z,0
2018-03-28T04:11:39.130Z,0
2018-03-28T04:12:19.648Z,0
2018-03-28T04:13:00.172Z,0
2018-03-28T04:13:40.675Z,0
2018-03-28T04:14:21.189Z,0
2018-03-28T04:15:01.702Z,0
2018-03-28T04:15:42.234Z,0
2018-03-28T04:16:22.747Z,0
2018-03-28T04:17:03.265Z,0
2018-03-28T04:17:43.774Z,0
2018-03-28T04:18:24.285Z,0
2018-03-28T04:19:04.809Z,0
2018-03-28T04:19:45.316Z,0
2018-03-28T04:20:25.834Z,0
2018-03-28T04:21:06.358Z,0
2018-03-28T04:21:46.880Z,0
2018-03-28T04:22:27.409Z,0
2018-03-28T04:23:07.920Z,0
2018-03-28T04:23:48.446Z,0
2018-03-28T04:24:28.969Z,0
2018-03-28T04:25:09.481Z,0
2018-03-28T04:25:50.008Z,0
2018-03-28T04:26:30.528Z,0
2018-03-28T04:27:11.048Z,0
2018-03-28T04:27:51.555Z,0
2018-03-28T04:28:32.077Z,0
2018-03-28T04:29:12.611Z,0
2018-03-28T04:29:53.137Z,0
2018-03-28T04:30:33.678Z,0
2018-03-28T04:31:14.180Z,0
2018-03-28T04:31:54.695Z,0
2018-03-28T04:32:35.889Z,0
2018-03-28T04:33:15.771Z,0
2018-03-28T04:33:56.276Z,0
2018-03-28T04:34:36.796Z,0
2018-03-28T04:35:17.312Z,0
2018-03-28T04:35:57.833Z,0
2018-03-28T04:36:38.387Z,0
2018-03-28T04:37:18.871Z,0
2018-03-28T04:37:59.401Z,0
2018-03-28T04:38:39.920Z,0
2018-03-28T04:39:20.432Z,0
2018-03-28T04:40:00.950Z,0
2018-03-28T04:40:41.476Z,0
2018-03-28T04:41:22.000Z,0
2018-03-28T04:42:02.529Z,0
2018-03-28T04:42:43.044Z,0
2018-03-28T04:43:23.556Z,0
2018-03-28T04:44:04.092Z,0
2018-03-28T04:44:44.608Z,0
2018-03-28T04:45:25.144Z,0
2018-03-28T04:46:05.644Z,0
2018-03-28T04:46:46.148Z,0
2018-03-28T04:47:26.678Z,0
2018-03-28T04:48:07.193Z,0
2018-03-28T04:48:47.720Z,0
2018-03-28T04:49:28.237Z,0
2018-03-28T04:50:08.747Z,0
2018-03-28T04:50:49.259Z,0
2018-03-28T04:51:29.784Z,0
2018-03-28T04:52:10.290Z,0
2018-03-28T04:52:50.806Z,0
2018-03-28T04:53:31.326Z,0
2018-03-28T04:54:11.856Z,0
2018-03-28T04:54:52.370Z,0
2018-03-28T04:55:32.904Z,4
2018-03-28T04:56:13.432Z,4
2018-03-28T04:56:53.952Z,4
2018-03-28T04:57:34.483Z,4
2018-03-28T04:58:15.001Z,4
2018-03-28T04:58:55.532Z,4
2018-03-28T04:59:36.019Z,4
2018-03-28T05:00:16.600Z,4
2018-03-28T05:00:57.201Z,8
2018-03-28T05:01:37.670Z,8
2018-03-28T05:02:18.189Z,4
2018-03-28T05:02:58.745Z,4
2018-03-28T05:03:39.265Z,4
2018-03-28T05:04:19.824Z,4
2018-03-28T05:05:00.288Z,4
2018-03-28T05:05:40.802Z,4
2018-03-28T05:06:21.411Z,4
2018-03-28T05:07:01.905Z,8
2018-03-28T05:07:42.412Z,12
2018-03-28T05:08:22.985Z,16
2018-03-28T05:09:03.456Z,16
2018-03-28T05:09:43.962Z,16
2018-03-28T05:10:24.480Z,16
2018-03-28T05:11:04.977Z,16
2018-03-28T05:11:45.510Z,20
2018-03-28T05:12:26.019Z,20
2018-03-28T05:13:06.522Z,20
2018-03-28T05:13:47.033Z,20
2018-03-28T05:14:27.542Z,28
2018-03-28T05:15:08.064Z,28
2018-03-28T05:15:48.646Z,32
2018-03-28T05:16:29.100Z,32
2018-03-28T05:17:09.685Z,36
2018-03-28T05:17:50.161Z,40
2018-03-28T05:18:30.697Z,40
2018-03-28T05:19:11.216Z,40
2018-03-28T05:19:51.734Z,40
2018-03-28T05:20:32.255Z,40
2018-03-28T05:21:12.746Z,36
2018-03-28T05:21:53.349Z,36
2018-03-28T05:22:33.925Z,36
2018-03-28T05:23:14.351Z,40
2018-03-28T05:23:54.895Z,44
2018-03-28T05:26:08.208Z,48
2018-03-28T05:26:48.727Z,52
2018-03-28T05:27:29.242Z,56
2018-03-28T05:28:09.822Z,56
2018-03-28T05:28:50.338Z,60
2018-03-28T05:29:30.844Z,64
2018-03-28T05:30:11.365Z,68
2018-03-28T05:30:51.868Z,76
2018-03-28T05:31:32.398Z,80
2018-03-28T05:32:12.917Z,88
2018-03-28T05:32:53.532Z,92
2018-03-28T05:33:34.043Z,96
2018-03-28T05:34:14.559Z,96
2018-03-28T05:34:55.778Z,108
2018-03-28T05:35:36.195Z,124
2018-03-28T05:36:16.727Z,136
2018-03-28T05:36:57.241Z,136
2018-03-28T05:37:37.801Z,136
2018-03-28T05:38:18.255Z,132
2018-03-28T05:38:58.803Z,132
2018-03-28T05:39:39.277Z,124
2018-03-28T05:40:19.950Z,120
2018-03-28T05:41:00.296Z,120
2018-03-28T05:41:40.810Z,116
2018-03-28T05:42:21.320Z,124
2018-03-28T05:43:01.835Z,124
2018-03-28T05:43:42.364Z,124
2018-03-28T05:44:22.874Z,132
2018-03-28T05:45:03.422Z,136
2018-03-28T05:45:43.931Z,144
2018-03-28T05:46:24.443Z,156
2018-03-28T05:47:05.088Z,168
2018-03-28T05:47:45.737Z,180
2018-03-28T05:48:26.496Z,192
2018-03-28T05:49:06.940Z,208
2018-03-28T05:49:47.493Z,224
2018-03-28T05:50:28.022Z,232
2018-03-28T05:51:08.539Z,240
2018-03-28T05:51:49.036Z,240
2018-03-28T05:52:29.535Z,232
2018-03-28T05:53:10.066Z,220
2018-03-28T05:53:50.616Z,224
2018-03-28T05:54:31.171Z,232
2018-03-28T05:55:11.734Z,244
2018-03-28T05:55:53.541Z,244
2018-03-28T05:56:34.066Z,252
2018-03-28T05:57:14.592Z,264
2018-03-28T05:57:55.071Z,280
2018-03-28T05:58:35.523Z,280
2018-03-28T05:59:16.059Z,280
2018-03-28T05:59:56.494Z,288
2018-03-28T06:00:37.028Z,304
2018-03-28T06:01:17.521Z,320
2018-03-28T06:01:58.079Z,336
2018-03-28T06:02:38.494Z,336
2018-03-28T06:03:19.008Z,360
2018-03-28T06:03:59.505Z,376
2018-03-28T06:04:39.980Z,368
2018-03-28T06:05:20.462Z,368
2018-03-28T06:06:01.029Z,360
2018-03-28T06:06:41.434Z,364
2018-03-28T06:07:21.947Z,384
2018-03-28T06:08:02.443Z,400
2018-03-28T06:08:42.944Z,416
2018-03-28T06:09:23.422Z,420
2018-03-28T06:10:03.920Z,456
2018-03-28T06:10:44.408Z,516
2018-03-28T06:11:24.892Z,608
2018-03-28T06:12:05.359Z,724
2018-03-28T06:12:45.863Z,772
2018-03-28T06:13:26.351Z,908
2018-03-28T06:14:06.938Z,1008
2018-03-28T06:14:47.353Z,1024
2018-03-28T06:15:27.866Z,1008
2018-03-28T06:16:08.344Z,980
2018-03-28T06:16:48.861Z,1064
2018-03-28T06:17:29.296Z,1184
2018-03-28T06:18:09.802Z,1388
2018-03-28T06:18:50.242Z,1608
2018-03-28T06:19:30.755Z,1608
2018-03-28T06:20:11.403Z,1612
2018-03-28T06:20:51.884Z,1688
2018-03-28T06:21:32.441Z,1876
2018-03-28T06:22:12.931Z,2104
2018-03-28T06:22:53.462Z,2248
2018-03-28T06:23:33.956Z,2340
2018-03-28T06:24:14.440Z,2444
2018-03-28T06:24:54.948Z,2412
2018-03-28T06:25:35.454Z,2588
2018-03-28T06:26:15.944Z,2704
2018-03-28T06:26:56.432Z,2676
2018-03-28T06:27:36.946Z,2780
2018-03-28T06:28:17.468Z,2836
2018-03-28T06:28:57.966Z,2936
2018-03-28T06:29:38.490Z,3060
2018-03-28T06:30:19.006Z,3000
2018-03-28T06:30:59.532Z,2736
2018-03-28T06:31:40.027Z,2536
2018-03-28T06:32:20.542Z,2436
2018-03-28T06:33:01.077Z,2332
2018-03-28T06:33:41.597Z,2228
2018-03-28T06:34:22.105Z,2176
2018-03-28T06:35:02.633Z,2140
2018-03-28T06:35:43.151Z,2116
2018-03-28T06:36:23.663Z,2080
2018-03-28T06:37:04.173Z,2040
2018-03-28T06:37:44.692Z,2008
2018-03-28T06:38:25.207Z,1980
2018-03-28T06:39:05.725Z,1984
2018-03-28T06:39:46.232Z,1972
2018-03-28T06:40:26.750Z,2008
2018-03-28T06:41:07.239Z,2056
2018-03-28T06:41:47.760Z,2120
2018-03-28T06:42:28.249Z,2204
2018-03-28T06:43:08.735Z,2344
2018-03-28T06:43:49.270Z,2496
2018-03-28T06:44:29.717Z,2656
2018-03-28T06:45:10.198Z,2864
2018-03-28T06:45:50.691Z,3152
2018-03-28T06:46:31.224Z,3532
2018-03-28T06:47:11.754Z,3948
2018-03-28T06:47:52.277Z,4000
2018-03-28T06:48:32.798Z,3936
2018-03-28T06:49:13.312Z,3992
2018-03-28T06:49:53.844Z,4052
2018-03-28T06:50:34.391Z,4132
2018-03-28T06:51:14.878Z,4332
2018-03-28T06:51:55.384Z,4436
2018-03-28T06:52:35.913Z,4064
2018-03-28T06:53:16.412Z,3684
2018-03-28T06:53:56.950Z,3476
2018-03-28T06:54:37.395Z,3428
2018-03-28T06:55:17.917Z,3404
2018-03-28T06:55:58.529Z,3396
2018-03-28T06:56:39.081Z,3268
2018-03-28T06:57:19.541Z,3152
2018-03-28T06:58:00.092Z,3012
2018-03-28T06:58:40.562Z,3020
2018-03-28T06:59:21.028Z,3012
2018-03-28T07:00:01.495Z,2856
2018-03-28T07:00:42.000Z,2736
2018-03-28T07:01:22.486Z,2656
2018-03-28T07:02:03.015Z,2516
2018-03-28T07:02:43.495Z,2448
2018-03-28T07:03:23.957Z,2356
2018-03-28T07:04:04.465Z,2112
2018-03-28T07:04:44.942Z,1912
2018-03-28T07:05:25.442Z,1812
2018-03-28T07:06:05.920Z,1788
2018-03-28T07:06:46.402Z,1888
2018-03-28T07:07:26.995Z,1992
2018-03-28T07:08:07.450Z,2172
2018-03-28T07:08:47.966Z,2328
2018-03-28T07:09:28.494Z,2428
2018-03-28T07:10:09.020Z,2488
2018-03-28T07:10:49.522Z,2528
2018-03-28T07:11:30.043Z,2656
2018-03-28T07:12:10.559Z,2876
2018-03-28T07:12:51.076Z,3124
2018-03-28T07:13:31.655Z,3300
2018-03-28T07:14:12.217Z,3436
2018-03-28T07:14:52.641Z,3300
2018-03-28T07:15:33.170Z,3216
2018-03-28T07:16:13.645Z,2956
2018-03-28T07:16:54.182Z,2956
2018-03-28T07:17:34.688Z,2916
2018-03-28T07:18:15.165Z,2776
2018-03-28T07:18:55.644Z,2560
2018-03-28T07:19:36.169Z,2608
2018-03-28T07:20:16.627Z,2672
2018-03-28T07:20:57.097Z,2796
2018-03-28T07:21:37.666Z,2996
2018-03-28T07:22:18.178Z,3068
2018-03-28T07:22:58.628Z,2992
2018-03-28T07:23:39.204Z,3028
2018-03-28T07:24:19.691Z,3224
2018-03-28T07:25:00.189Z,3384
2018-03-28T07:25:40.699Z,3572
2018-03-28T07:26:21.181Z,3724
2018-03-28T07:27:01.832Z,3784
2018-03-28T07:27:42.331Z,3884
2018-03-28T07:28:22.857Z,4108
2018-03-28T07:29:03.410Z,4244
2018-03-28T07:29:43.929Z,4340
2018-03-28T07:30:24.462Z,4296
2018-03-28T07:31:04.952Z,3976
2018-03-28T07:31:45.440Z,3336
2018-03-28T07:32:26.177Z,3396
2018-03-28T07:33:06.697Z,3644
2018-03-28T07:33:47.197Z,3888
2018-03-28T07:34:27.739Z,3808
2018-03-28T07:35:08.218Z,3564
2018-03-28T07:35:48.717Z,3476
2018-03-28T07:36:29.216Z,3664
2018-03-28T07:37:09.675Z,3812
2018-03-28T07:37:50.227Z,4076
2018-03-28T07:38:30.731Z,4232
2018-03-28T07:39:11.255Z,4540
2018-03-28T07:39:51.864Z,4564
2018-03-28T07:40:32.289Z,4788
2018-03-28T07:41:12.735Z,5056
2018-03-28T07:41:53.218Z,5212
2018-03-28T07:42:33.798Z,5396
2018-03-28T07:43:14.296Z,5568
2018-03-28T07:43:54.944Z,5688
2018-03-28T07:44:35.492Z,5740
2018-03-28T07:45:15.954Z,5780
2018-03-28T07:45:56.452Z,5664
2018-03-28T07:46:36.969Z,5664
2018-03-28T07:47:17.436Z,5584
2018-03-28T07:47:58.000Z,5520
2018-03-28T07:48:38.488Z,5524
2018-03-28T07:49:18.960Z,5496
2018-03-28T07:49:59.429Z,5500
2018-03-28T07:50:39.950Z,5480
2018-03-28T07:51:20.435Z,5216
2018-03-28T07:52:00.937Z,4872
2018-03-28T07:52:41.489Z,4724
2018-03-28T07:53:21.953Z,4716
2018-03-28T07:54:02.424Z,4732
2018-03-28T07:54:42.922Z,4732
2018-03-28T07:55:23.431Z,4796
2018-03-28T07:56:03.942Z,4760
2018-03-28T07:56:44.594Z,4656
2018-03-28T07:57:25.099Z,4656
2018-03-28T07:58:05.581Z,4796
2018-03-28T07:58:46.238Z,4652
2018-03-28T07:59:26.728Z,4608
2018-03-28T08:00:07.195Z,4716
2018-03-28T08:00:47.694Z,4848
2018-03-28T08:01:28.166Z,4892
2018-03-28T08:02:08.680Z,4832
2018-03-28T08:02:49.173Z,4740
2018-03-28T08:03:29.767Z,4756
2018-03-28T08:04:10.190Z,4756
2018-03-28T08:04:50.728Z,4932
2018-03-28T08:05:31.393Z,5088
2018-03-28T08:06:11.973Z,5204
2018-03-28T08:06:52.463Z,5184
2018-03-28T08:07:32.995Z,5256
2018-03-28T08:08:13.435Z,5328
2018-03-28T08:08:53.935Z,5396
2018-03-28T08:09:34.572Z,5412
2018-03-28T08:10:14.957Z,5388
2018-03-28T08:10:55.552Z,5436
2018-03-28T08:11:36.215Z,5456
2018-03-28T08:12:16.899Z,5360
2018-03-28T08:12:58.160Z,5472
2018-03-28T08:13:37.992Z,5576
2018-03-28T08:14:19.088Z,5900
2018-03-28T08:14:59.399Z,5924
2018-03-28T08:15:39.832Z,6052
2018-03-28T08:16:20.380Z,6108
2018-03-28T08:17:00.890Z,5936
2018-03-28T08:17:41.432Z,5924
2018-03-28T08:18:21.936Z,6004
2018-03-28T08:19:02.466Z,6056
2018-03-28T08:19:42.932Z,5924
2018-03-28T08:20:23.443Z,5960
2018-03-28T08:21:03.999Z,5832
2018-03-28T08:21:44.596Z,5744
2018-03-28T08:22:25.250Z,5644
2018-03-28T08:23:05.848Z,5824
2018-03-28T08:23:46.324Z,5820
2018-03-28T08:24:26.752Z,6080
2018-03-28T08:25:07.513Z,6164
2018-03-28T08:25:47.865Z,6216
2018-03-28T08:26:28.347Z,6364
2018-03-28T08:27:08.798Z,6232
2018-03-28T08:27:49.286Z,6072
2018-03-28T08:28:29.758Z,5652
2018-03-28T08:29:10.416Z,5380
2018-03-28T08:29:50.980Z,5268
2018-03-28T08:30:31.502Z,5252
2018-03-28T08:31:11.931Z,5400
2018-03-28T08:31:52.464Z,5320
2018-03-28T08:32:32.940Z,5256
2018-03-28T08:33:13.526Z,4968
2018-03-28T08:33:54.050Z,4932
2018-03-28T08:34:34.779Z,5108
2018-03-28T08:35:15.262Z,4936
2018-03-28T08:35:55.802Z,4736
2018-03-28T08:36:36.309Z,4900
2018-03-28T08:37:16.847Z,5108
2018-03-28T08:37:57.348Z,5084
2018-03-28T08:38:37.885Z,5120
2018-03-28T08:39:18.375Z,5004
2018-03-28T08:39:58.957Z,4840
2018-03-28T08:40:39.477Z,4692
2018-03-28T08:41:21.076Z,4656
2018-03-28T08:42:00.648Z,4452
2018-03-28T08:42:41.508Z,4692
2018-03-28T08:43:22.038Z,4924
2018-03-28T08:44:02.593Z,5380
2018-03-28T08:44:43.138Z,5208
2018-03-28T08:45:23.994Z,5000
2018-03-28T08:46:04.461Z,4704
2018-03-28T08:46:44.959Z,4748
2018-03-28T08:47:26.164Z,5092
2018-03-28T08:48:05.910Z,5520
2018-03-28T08:48:46.507Z,5716
2018-03-28T08:49:27.274Z,5764
2018-03-28T08:50:07.764Z,5508
2018-03-28T08:50:48.645Z,5092
2018-03-28T08:51:29.100Z,5056
2018-03-28T08:52:09.637Z,5232
2018-03-28T08:52:50.244Z,5528
2018-03-28T08:53:30.720Z,5376
2018-03-28T08:54:11.212Z,5044
2018-03-28T08:54:51.685Z,4868
2018-03-28T08:55:32.201Z,4724
2018-03-28T08:56:12.732Z,4520
2018-03-28T08:56:53.251Z,4408
2018-03-28T08:57:33.764Z,4192
2018-03-28T08:58:14.286Z,4104
2018-03-28T08:58:54.830Z,4072
2018-03-28T08:59:35.308Z,4160
2018-03-28T09:00:15.805Z,4340
2018-03-28T09:00:56.302Z,4328
2018-03-28T09:01:36.788Z,4040
2018-03-28T09:02:17.765Z,4132
2018-03-28T09:02:58.345Z,4656
2018-03-28T09:03:38.806Z,5344
2018-03-28T09:04:19.307Z,5960
2018-03-28T09:04:59.827Z,6564
2018-03-28T09:05:40.345Z,6700
2018-03-28T09:06:20.873Z,6812
2018-03-28T09:07:01.380Z,6624
2018-03-28T09:07:42.118Z,6348
2018-03-28T09:08:22.613Z,6356
2018-03-28T09:09:03.167Z,6360
2018-03-28T09:09:43.736Z,6308
2018-03-28T09:10:24.188Z,6384
2018-03-28T09:11:04.851Z,6340
2018-03-28T09:11:45.269Z,6368
2018-03-28T09:12:25.788Z,6120
2018-03-28T09:13:06.269Z,6132
2018-03-28T09:13:46.739Z,6356
2018-03-28T09:14:27.381Z,6456
2018-03-28T09:15:07.952Z,6380
2018-03-28T09:15:48.480Z,6144
2018-03-28T09:18:07.172Z,5964
2018-03-28T09:18:47.701Z,5584
2018-03-28T09:19:28.206Z,5600
2018-03-28T09:20:08.781Z,5304
2018-03-28T09:20:49.272Z,5048
2018-03-28T09:21:29.792Z,5216
2018-03-28T09:22:10.310Z,5100
2018-03-28T09:22:50.842Z,5116
2018-03-28T09:23:31.414Z,5320
2018-03-28T09:24:11.872Z,5640
2018-03-28T09:24:52.458Z,5640
2018-03-28T09:25:32.982Z,5404
2018-03-28T09:26:13.489Z,5504
2018-03-28T09:26:53.975Z,5780
2018-03-28T09:27:34.568Z,5892
2018-03-28T09:28:14.916Z,5980
2018-03-28T09:28:55.457Z,5948
2018-03-28T09:29:36.160Z,5704
2018-03-28T09:30:16.652Z,5376
2018-03-28T09:30:57.162Z,5260
2018-03-28T09:31:37.632Z,5564
2018-03-28T09:32:18.103Z,5152
2018-03-28T09:32:58.952Z,4532
2018-03-28T09:33:39.487Z,4804
2018-03-28T09:34:20.017Z,5216
2018-03-28T09:35:00.507Z,5408
2018-03-28T09:35:40.970Z,4952
2018-03-28T09:36:21.566Z,5136
2018-03-28T09:37:02.130Z,5508
2018-03-28T09:37:42.680Z,5620